Time;durP1;ratioP1;P1;durP2;ratioP2;P2;SDS_P1;SDS_P2;PMS_P1;PMS_P2;Temp;Humidity;BMP_temperature;BMP_pressure;BME280_temperature;BME280_humidity;BME280_pressure;Samples;Min_cycle;Max_cycle;Signal;HPM_P1;HPM_P2
2021/09/16 00:01:23;;;;;;;26.65;18.33;;;;;;;18.20;93.08;96173.09;5091786;28;20052;-74
2021/09/16 00:03:49;;;;;;;23.15;16.98;;;;;;;18.20;93.15;96173.09;5092297;28;20055;-74
2021/09/16 00:06:16;;;;;;;26.88;16.27;;;;;;;18.21;92.75;96171.91;5091425;28;20059;-74
2021/09/16 00:08:42;;;;;;;25.20;16.10;;;;;;;18.20;92.92;96178.59;5091993;28;20048;-73
2021/09/16 00:11:08;;;;;;;21.00;15.00;;;;;;;18.21;92.96;96174.66;5091352;28;20055;-73
2021/09/16 00:13:35;;;;;;;19.20;14.30;;;;;;;18.24;93.02;96176.69;5092007;28;20730;-74
2021/09/16 00:16:02;;;;;;;22.70;14.32;;;;;;;18.24;92.98;96169.22;5091625;28;20051;-73
2021/09/16 00:18:30;;;;;;;19.80;13.45;;;;;;;18.24;92.91;96168.44;5092185;28;20048;-74
2021/09/16 00:20:56;;;;;;;19.40;12.88;;;;;;;18.23;92.44;96166.84;5091619;28;20055;-74
2021/09/16 00:23:23;;;;;;;17.30;12.68;;;;;;;18.24;92.12;96168.44;5091624;28;20048;-74
2021/09/16 00:25:49;;;;;;;18.80;13.43;;;;;;;18.28;92.10;96174.00;5091941;28;20048;-75
2021/09/16 00:28:16;;;;;;;15.63;12.35;;;;;;;18.30;92.12;96177.16;5091443;28;20048;-74
2021/09/16 00:30:42;;;;;;;16.55;12.18;;;;;;;18.35;91.68;96174.88;5091955;28;20051;-73
2021/09/16 00:33:09;;;;;;;16.15;12.30;;;;;;;18.37;91.48;96183.56;5091226;28;20071;-74
2021/09/16 00:35:37;;;;;;;17.70;11.90;;;;;;;18.37;90.83;96183.56;5091867;28;20055;-74
2021/09/16 00:38:03;;;;;;;17.75;10.90;;;;;;;18.33;90.04;96188.25;5091382;28;20044;-73
2021/09/16 00:40:30;;;;;;;17.58;10.35;;;;;;;18.30;89.92;96188.97;5091551;28;20048;-74
2021/09/16 00:42:56;;;;;;;16.55;10.60;;;;;;;18.25;90.07;96181.81;5091885;28;20040;-73
2021/09/16 00:45:23;;;;;;;15.25;10.48;;;;;;;18.24;90.67;96187.72;5091319;28;20499;-74
2021/09/16 00:47:51;;;;;;;13.65;10.57;;;;;;;18.21;90.81;96182.94;5091693;28;20051;-73
2021/09/16 00:50:21;;;;;;;13.63;10.15;;;;;;;18.23;90.92;96184.16;5090834;28;20055;-74
2021/09/16 00:52:50;;;;;;;12.70;9.60;;;;;;;18.23;90.26;96177.88;5091828;28;20054;-73
2021/09/16 00:55:17;;;;;;;12.10;9.70;;;;;;;18.20;90.70;96171.13;5091026;28;20052;-74
2021/09/16 00:57:48;;;;;;;12.77;9.38;;;;;;;18.19;90.67;96171.50;5091296;28;20052;-74
2021/09/16 01:00:16;;;;;;;13.95;9.45;;;;;;;18.12;89.91;96168.66;5090833;28;20044;-73
2021/09/16 01:02:42;;;;;;;11.77;8.65;;;;;;;18.11;90.23;96164.28;5091316;28;20048;-74
2021/09/16 01:05:10;;;;;;;13.27;9.32;;;;;;;18.13;90.77;96157.25;5090701;28;20048;-73
2021/09/16 01:07:39;;;;;;;16.20;9.30;;;;;;;18.15;90.93;96154.13;5091067;28;20051;-74
2021/09/16 01:10:09;;;;;;;12.52;9.20;;;;;;;18.18;91.06;96147.88;5090707;28;20097;-74
2021/09/16 01:12:37;;;;;;;14.70;8.98;;;;;;;18.19;91.36;96154.97;5091364;28;20048;-73
2021/09/16 01:15:04;;;;;;;12.90;8.57;;;;;;;18.19;91.35;96154.97;5090760;28;20418;-74
2021/09/16 01:17:31;;;;;;;13.40;8.80;;;;;;;18.21;91.40;96166.41;5091253;28;20052;-74
2021/09/16 01:19:57;;;;;;;11.68;8.23;;;;;;;18.21;90.72;96158.91;5090519;28;20052;-74
2021/09/16 01:22:24;;;;;;;14.05;8.82;;;;;;;18.21;90.73;96169.16;5090827;28;20044;-74
2021/09/16 01:24:52;;;;;;;12.95;8.05;;;;;;;18.23;90.89;96166.84;5091020;28;20044;-74
2021/09/16 01:27:19;;;;;;;9.60;7.70;;;;;;;18.22;90.79;96166.06;5090728;28;20054;-74
2021/09/16 01:29:45;;;;;;;12.00;7.70;;;;;;;18.23;90.40;96177.88;5091052;28;20388;-74
2021/09/16 01:32:12;;;;;;;9.40;6.75;;;;;;;18.22;89.95;96171.56;5090485;28;20044;-73
2021/09/16 01:34:38;;;;;;;9.55;6.03;;;;;;;18.19;89.49;96177.81;5091027;28;20044;-74
2021/09/16 01:37:07;;;;;;;8.80;5.82;;;;;;;18.17;89.00;96171.88;5090552;28;20138;-74
2021/09/16 01:39:35;;;;;;;9.32;5.70;;;;;;;18.13;89.24;96173.00;5090933;28;20081;-74
2021/09/16 01:42:03;;;;;;;9.90;5.60;;;;;;;18.07;89.52;96180.78;5090615;28;20044;-74
2021/09/16 01:44:31;;;;;;;9.77;5.63;;;;;;;18.07;89.85;96182.75;5090771;28;20048;-74
2021/09/16 01:46:57;;;;;;;11.13;5.03;;;;;;;18.05;89.26;96176.78;5091038;28;20395;-73
2021/09/16 01:49:23;;;;;;;8.20;5.15;;;;;;;18.05;89.80;96176.78;5086135;28;20048;-73
2021/09/16 01:51:50;;;;;;;10.25;5.00;;;;;;;18.04;89.97;96175.22;5091072;28;20051;-74
2021/09/16 01:54:16;;;;;;;8.32;4.88;;;;;;;18.04;89.27;96181.50;5090448;28;20048;-74
2021/09/16 01:56:43;;;;;;;7.32;4.50;;;;;;;18.00;89.41;96172.38;5090957;28;20083;-74
2021/09/16 01:59:11;;;;;;;9.40;4.70;;;;;;;18.00;89.40;96164.91;5090362;28;20076;-74
2021/09/16 02:01:37;;;;;;;6.40;4.00;;;;;;;17.98;89.23;96161.75;5090811;28;20059;-74
2021/09/16 02:04:04;;;;;;;5.95;4.03;;;;;;;17.95;89.33;96159.72;5093724;28;20040;-74
2021/09/16 02:06:30;;;;;;;6.70;4.18;;;;;;;17.95;89.64;96145.16;5094702;28;20044;-74
2021/09/16 02:08:57;;;;;;;7.40;4.70;;;;;;;17.92;89.78;96152.22;5094500;28;20055;-75
2021/09/16 02:11:23;;;;;;;8.52;4.80;;;;;;;17.89;90.14;96147.44;5094244;28;20044;-73
2021/09/16 02:13:50;;;;;;;9.32;4.65;;;;;;;17.92;90.19;96141.19;5094523;28;20048;-74
2021/09/16 02:16:17;;;;;;;6.80;4.15;;;;;;;17.94;89.73;96138.84;5094198;28;20044;-73
2021/09/16 02:18:44;;;;;;;8.60;4.25;;;;;;;17.91;89.52;96145.13;5094348;28;20044;-74
2021/09/16 02:21:10;;;;;;;7.63;4.30;;;;;;;17.87;89.48;96141.50;5093632;28;20051;-74
2021/09/16 02:23:37;;;;;;;7.95;4.53;;;;;;;17.85;90.03;96152.09;5094366;28;20056;-74
2021/09/16 02:26:04;;;;;;;9.70;5.18;;;;;;;17.83;89.93;96153.63;5093685;28;20040;-73
2021/09/16 02:28:30;;;;;;;11.68;4.40;;;;;;;17.83;89.39;96151.66;5094046;28;20502;-74
2021/09/16 02:30:57;;;;;;;7.22;4.50;;;;;;;17.81;89.67;96154.00;5094303;28;20036;-74
2021/09/16 02:33:24;;;;;;;7.28;4.30;;;;;;;17.81;89.53;96154.00;5094014;28;20044;-73
2021/09/16 02:35:52;;;;;;;9.82;4.47;;;;;;;17.81;89.20;96154.00;5094442;28;20059;-74
2021/09/16 02:38:20;;;;;;;8.60;4.45;;;;;;;17.79;89.30;96148.06;5093506;28;20044;-74
2021/09/16 02:40:46;;;;;;;7.03;4.40;;;;;;;17.78;89.30;96153.94;5093881;28;20056;-77
2021/09/16 02:43:13;;;;;;;7.47;4.70;;;;;;;17.75;89.33;96152.75;5093413;28;20052;-73
2021/09/16 02:45:39;;;;;;;7.18;3.95;;;;;;;17.76;88.84;96148.81;5094055;28;20048;-74
2021/09/16 02:48:06;;;;;;;6.03;4.05;;;;;;;17.72;88.83;96140.50;5093241;28;20072;-74
2021/09/16 02:50:34;;;;;;;6.88;4.22;;;;;;;17.74;89.22;96129.88;5093853;28;20052;-74
2021/09/16 02:53:00;;;;;;;6.85;4.43;;;;;;;17.70;88.94;96133.75;5093779;28;20483;-74
2021/09/16 02:55:27;;;;;;;9.68;4.07;;;;;;;17.65;89.25;96132.09;5093428;28;20036;-73
2021/09/16 02:57:53;;;;;;;8.00;4.65;;;;;;;17.61;89.49;96135.94;5093871;28;20066;-74
2021/09/16 03:00:20;;;;;;;10.98;4.47;;;;;;;17.58;89.70;96140.22;5093184;28;20048;-73
2021/09/16 03:02:46;;;;;;;10.93;4.93;;;;;;;17.56;89.99;96144.53;5093542;28;20044;-74
2021/09/16 03:05:13;;;;;;;10.43;4.70;;;;;;;17.54;90.27;96152.34;5093277;28;20055;-73
2021/09/16 03:07:41;;;;;;;7.25;5.10;;;;;;;17.53;90.54;96153.50;5093527;28;20048;-73
2021/09/16 03:10:10;;;;;;;8.18;4.57;;;;;;;17.54;90.58;96157.84;5092924;28;20513;-73
2021/09/16 03:12:37;;;;;;;8.38;5.20;;;;;;;17.53;90.47;96156.25;5093355;28;20418;-73
2021/09/16 03:15:04;;;;;;;7.30;4.63;;;;;;;17.53;90.51;96161.75;5092647;28;20620;-74
2021/09/16 03:17:30;;;;;;;9.05;4.63;;;;;;;17.51;90.41;96155.84;5093357;28;20495;-73
2021/09/16 03:19:57;;;;;;;7.75;4.70;;;;;;;17.50;90.56;96149.53;5092779;28;20067;-73
2021/09/16 03:22:23;;;;;;;7.13;4.50;;;;;;;17.50;90.62;96151.50;5092588;28;20055;-74
2021/09/16 03:24:51;;;;;;;7.63;4.68;;;;;;;17.48;90.30;96149.09;5093138;28;20047;-74
2021/09/16 03:27:18;;;;;;;8.88;5.13;;;;;;;17.45;90.26;96139.63;5092833;28;20048;-74
2021/09/16 03:29:44;;;;;;;10.07;4.93;;;;;;;17.43;90.14;96141.94;5093092;28;20048;-75
2021/09/16 03:32:11;;;;;;;10.57;5.47;;;;;;;17.41;90.02;96141.53;5092714;28;20411;-73
2021/09/16 03:34:37;;;;;;;9.10;5.10;;;;;;;17.40;90.14;96144.66;5093053;28;20036;-73
2021/09/16 03:37:04;;;;;;;8.82;5.30;;;;;;;17.40;90.09;96139.94;5092619;28;20043;-73
2021/09/16 03:39:30;;;;;;;11.25;5.22;;;;;;;17.38;89.91;96135.94;5092837;28;20047;-75
2021/09/16 03:41:58;;;;;;;9.65;4.93;;;;;;;17.38;90.02;96133.19;5092744;28;20060;-73
2021/09/16 03:44:25;;;;;;;8.45;4.80;;;;;;;17.35;89.98;96134.75;5092230;28;20526;-73
2021/09/16 03:46:53;;;;;;;12.27;5.38;;;;;;;17.35;89.66;96136.69;5092747;28;20040;-73
2021/09/16 03:49:20;;;;;;;9.05;5.35;;;;;;;17.35;90.04;96145.75;5092053;28;20079;-73
2021/09/16 03:51:46;;;;;;;9.90;4.85;;;;;;;17.39;89.66;96135.59;5092736;28;20052;-73
2021/09/16 03:54:13;;;;;;;8.15;4.75;;;;;;;17.39;89.41;96145.81;5092334;28;20051;-74
2021/09/16 03:56:39;;;;;;;10.85;4.45;;;;;;;17.38;89.64;96142.28;5092720;28;20044;-73
2021/09/16 03:59:07;;;;;;;12.15;4.72;;;;;;;17.40;89.90;96147.41;5092121;28;20040;-73
2021/09/16 04:01:33;;;;;;;13.88;5.10;;;;;;;17.39;90.03;96135.59;5092398;28;20048;-74
2021/09/16 04:04:00;;;;;;;11.77;4.95;;;;;;;17.40;89.98;96131.69;5092533;28;20056;-74
2021/09/16 04:06:26;;;;;;;12.00;5.25;;;;;;;17.41;89.89;96132.47;5092019;28;20083;-79
2021/09/16 04:08:53;;;;;;;16.63;6.38;;;;;;;17.42;90.03;96128.53;5092384;28;20048;-74
2021/09/16 04:11:19;;;;;;;8.43;4.78;;;;;;;17.44;90.08;96129.00;5091828;28;20487;-73
2021/09/16 04:13:45;;;;;;;14.82;5.65;;;;;;;17.45;89.72;96139.63;5092129;28;20047;-74
2021/09/16 04:16:13;;;;;;;11.10;4.68;;;;;;;17.45;89.58;96139.63;5092210;28;20130;-74
2021/09/16 04:18:40;;;;;;;9.32;5.15;;;;;;;17.44;89.15;96145.50;5092428;28;20407;-74
2021/09/16 04:21:06;;;;;;;9.95;4.40;;;;;;;17.43;89.43;96147.44;5091248;28;20526;-74
2021/09/16 04:23:33;;;;;;;7.53;4.25;;;;;;;17.43;89.22;96141.94;5091982;28;20509;-73
2021/09/16 04:25:59;;;;;;;5.78;4.30;;;;;;;17.42;89.11;96140.34;5091209;28;20040;-73
2021/09/16 04:28:25;;;;;;;7.47;4.30;;;;;;;17.41;88.93;96133.25;5091435;28;20052;-73
2021/09/16 04:30:52;;;;;;;6.53;4.60;;;;;;;17.40;88.93;96126.19;5091956;28;20087;-73
2021/09/16 04:33:20;;;;;;;9.98;4.88;;;;;;;17.40;88.90;96120.66;5091217;28;20506;-73
2021/09/16 04:35:47;;;;;;;10.63;4.35;;;;;;;17.43;88.70;96130.94;5091731;28;20101;-73
2021/09/16 04:38:15;;;;;;;9.90;4.55;;;;;;;17.42;88.79;96132.09;5091137;28;20048;-73
2021/09/16 04:40:41;;;;;;;11.10;4.55;;;;;;;17.45;88.84;96134.13;5091855;28;20101;-73
2021/09/16 04:43:08;;;;;;;7.15;4.78;;;;;;;17.50;88.72;96133.03;5091243;28;20055;-73
2021/09/16 04:45:34;;;;;;;9.43;4.95;;;;;;;17.51;88.58;96136.56;5091613;28;20520;-74
2021/09/16 04:48:00;;;;;;;8.05;5.22;;;;;;;17.48;88.79;96130.63;5091430;28;20044;-74
2021/09/16 04:50:28;;;;;;;12.15;5.22;;;;;;;17.48;89.02;96127.88;5091121;28;20064;-74
2021/09/16 04:52:55;;;;;;;9.07;5.50;;;;;;;17.50;89.35;96134.97;5091574;28;20411;-73
2021/09/16 04:55:21;;;;;;;11.88;5.47;;;;;;;17.50;89.39;96140.50;5091150;28;20503;-74
2021/09/16 04:57:48;;;;;;;8.35;5.32;;;;;;;17.50;89.58;96146.78;5091523;28;20044;-73
2021/09/16 05:00:15;;;;;;;11.65;5.57;;;;;;;17.52;89.42;96143.66;5091078;28;20059;-73
2021/09/16 05:02:41;;;;;;;10.35;4.97;;;;;;;17.51;89.48;96147.59;5091381;28;20048;-73
2021/09/16 05:05:09;;;;;;;7.13;5.22;;;;;;;17.51;89.46;96142.88;5090809;28;20051;-73
2021/09/16 05:07:37;;;;;;;8.38;5.05;;;;;;;17.52;89.46;96138.16;5091395;28;20040;-74
2021/09/16 05:10:05;;;;;;;8.73;5.25;;;;;;;17.55;89.25;96129.16;5090539;28;20044;-73
2021/09/16 05:12:32;;;;;;;8.35;5.18;;;;;;;17.54;88.98;96135.81;5091287;28;20520;-74
2021/09/16 05:14:59;;;;;;;15.02;5.80;;;;;;;17.58;89.25;96139.44;5091070;28;20048;-73
2021/09/16 05:17:25;;;;;;;6.93;5.30;;;;;;;17.62;89.08;96132.81;5090744;28;20040;-74
2021/09/16 05:19:52;;;;;;;12.38;5.53;;;;;;;17.62;89.02;96137.53;5090671;28;20055;-74
2021/09/16 05:22:19;;;;;;;10.93;5.53;;;;;;;17.61;89.24;96138.69;5090811;28;20051;-74
2021/09/16 05:24:47;;;;;;;9.18;5.20;;;;;;;17.61;89.29;96146.97;5091233;28;20048;-74
2021/09/16 05:27:13;;;;;;;9.88;5.88;;;;;;;17.60;89.53;96140.66;5090336;28;20052;-73
2021/09/16 05:29:40;;;;;;;12.10;5.22;;;;;;;17.59;88.84;96139.09;5091173;28;20046;-74
2021/09/16 05:32:07;;;;;;;10.38;5.78;;;;;;;17.58;88.69;96134.72;5090500;28;20055;-74
2021/09/16 05:34:33;;;;;;;10.30;5.80;;;;;;;17.58;88.85;96131.16;5091204;28;20513;-74
2021/09/16 05:37:00;;;;;;;9.68;5.55;;;;;;;17.58;88.93;96142.19;5092714;28;20044;-74
2021/09/16 05:39:26;;;;;;;8.65;6.10;;;;;;;17.59;89.27;96149.28;5095108;28;20044;-75
2021/09/16 05:41:54;;;;;;;10.18;5.68;;;;;;;17.59;89.45;96149.28;5094960;28;20044;-74
2021/09/16 05:44:20;;;;;;;9.52;5.50;;;;;;;17.58;89.21;96158.69;5094729;28;20044;-74
2021/09/16 05:46:47;;;;;;;13.65;5.35;;;;;;;17.57;89.51;96151.59;5094906;28;20047;-75
2021/09/16 05:49:13;;;;;;;9.77;5.45;;;;;;;17.55;88.26;96156.69;5094387;28;20040;-74
2021/09/16 05:51:40;;;;;;;11.68;5.65;;;;;;;17.54;88.15;96155.91;5094861;28;20066;-74
2021/09/16 05:54:06;;;;;;;10.65;5.10;;;;;;;17.55;87.60;96164.97;5094573;28;20051;-75
2021/09/16 05:56:33;;;;;;;9.20;4.80;;;;;;;17.53;88.01;96162.56;5094977;28;20047;-74
2021/09/16 05:59:01;;;;;;;17.02;5.57;;;;;;;17.48;87.93;96155.38;5094807;28;20044;-74
2021/09/16 06:01:29;;;;;;;9.05;5.60;;;;;;;17.47;88.23;96164.81;5094752;28;20036;-73
2021/09/16 06:03:55;;;;;;;16.02;5.80;;;;;;;17.50;88.49;96157.00;5094717;28;20044;-75
2021/09/16 06:06:22;;;;;;;10.57;5.57;;;;;;;17.53;88.96;96164.50;5094331;28;20063;-75
2021/09/16 06:08:48;;;;;;;12.00;5.40;;;;;;;17.54;88.94;96166.91;5094669;28;20052;-75
2021/09/16 06:11:15;;;;;;;8.57;5.78;;;;;;;17.51;89.07;96167.66;5094177;28;20044;-74
2021/09/16 06:13:41;;;;;;;8.25;5.95;;;;;;;17.48;89.46;96171.91;5094645;28;20048;-74
2021/09/16 06:16:09;;;;;;;17.23;7.20;;;;;;;17.45;89.88;96178.16;5093984;28;20411;-75
2021/09/16 06:18:36;;;;;;;9.68;5.93;;;;;;;17.38;90.00;96178.06;5094304;28;20048;-75
2021/09/16 06:21:03;;;;;;;13.40;5.90;;;;;;;17.32;90.46;96179.50;5093718;28;20643;-75
2021/09/16 06:23:29;;;;;;;10.98;5.65;;;;;;;17.31;90.24;96177.91;5094473;28;20047;-75
2021/09/16 06:25:56;;;;;;;9.48;5.88;;;;;;;17.29;90.51;96174.72;5094226;28;20048;-75
2021/09/16 06:28:22;;;;;;;18.83;7.20;;;;;;;17.21;91.08;96176.53;5093842;28;20052;-77
2021/09/16 06:30:49;;;;;;;10.43;6.50;;;;;;;17.21;91.37;96173.78;5094325;28;20055;-75
2021/09/16 06:33:17;;;;;;;9.02;6.10;;;;;;;17.21;91.49;96179.28;5093679;28;20044;-74
2021/09/16 06:35:43;;;;;;;9.85;6.38;;;;;;;17.19;91.84;96181.63;5094427;28;20048;-74
2021/09/16 06:38:10;;;;;;;12.48;6.78;;;;;;;17.20;92.28;96182.44;5093738;28;20044;-73
2021/09/16 06:40:36;;;;;;;11.70;7.40;;;;;;;17.17;92.50;96180.38;5094127;28;20404;-75
2021/09/16 06:43:03;;;;;;;11.15;6.50;;;;;;;17.16;93.11;96176.06;5093657;28;20402;-73
2021/09/16 06:45:29;;;;;;;14.25;7.38;;;;;;;17.20;93.50;96182.44;5094103;28;20052;-74
2021/09/16 06:47:56;;;;;;;11.80;6.90;;;;;;;17.27;93.93;96177.03;5093303;28;20044;-74
2021/09/16 06:50:24;;;;;;;12.55;6.78;;;;;;;17.28;94.01;96183.34;5093237;28;20048;-74
2021/09/16 06:52:50;;;;;;;14.15;7.88;;;;;;;17.31;94.39;96182.63;5093998;28;20494;-74
2021/09/16 06:55:17;;;;;;;16.27;7.95;;;;;;;17.34;94.54;96181.91;5093141;28;20078;-74
2021/09/16 06:57:43;;;;;;;15.68;8.80;;;;;;;17.32;94.58;96185.00;5093643;28;20044;-75
2021/09/16 07:00:10;;;;;;;15.85;10.57;;;;;;;17.30;94.49;96181.81;5093244;28;20040;-74
2021/09/16 07:02:37;;;;;;;14.48;10.27;;;;;;;17.36;94.89;96183.09;5092727;28;20119;-74
2021/09/16 07:05:04;;;;;;;16.83;10.23;;;;;;;17.42;95.00;96178.88;5092823;28;20564;-74
2021/09/16 07:07:32;;;;;;;13.88;9.40;;;;;;;17.44;94.96;96171.06;5093341;28;20051;-74
2021/09/16 07:09:59;;;;;;;16.52;10.07;;;;;;;17.55;95.28;96164.97;5093412;28;20049;-74
2021/09/16 07:12:25;;;;;;;17.30;9.40;;;;;;;17.66;95.33;96165.94;5092988;28;20044;-74
2021/09/16 07:14:52;;;;;;;20.13;10.13;;;;;;;17.80;95.72;96160.69;5093429;28;20052;-74
2021/09/16 07:17:18;;;;;;;13.80;9.45;;;;;;;17.87;95.48;96158.03;5093033;28;20075;-74
2021/09/16 07:19:44;;;;;;;12.25;9.27;;;;;;;17.98;94.83;96161.75;5092883;28;20518;-74
2021/09/16 07:22:11;;;;;;;12.52;8.65;;;;;;;18.07;93.81;96174.47;5092911;28;20048;-74
2021/09/16 07:24:39;;;;;;;14.25;8.30;;;;;;;18.11;93.46;96176.09;5093270;28;20052;-74
2021/09/16 07:27:05;;;;;;;13.18;8.00;;;;;;;18.03;93.03;96177.16;5092667;28;20044;-74
2021/09/16 07:29:32;;;;;;;11.35;7.05;;;;;;;17.96;92.75;96177.88;5093140;28;20048;-74
2021/09/16 07:31:58;;;;;;;15.77;7.10;;;;;;;17.89;93.12;96177.72;5093118;28;20048;-75
2021/09/16 07:34:25;;;;;;;11.98;6.78;;;;;;;17.84;93.04;96183.56;5092749;28;20047;-75
2021/09/16 07:36:52;;;;;;;11.50;6.90;;;;;;;17.82;93.41;96191.41;5093034;28;20044;-75
2021/09/16 07:39:20;;;;;;;11.07;7.70;;;;;;;17.94;94.25;96187.66;5091479;28;20040;-74
2021/09/16 07:41:48;;;;;;;12.68;7.03;;;;;;;18.09;93.75;96194.19;5092918;28;20044;-77
2021/09/16 07:44:15;;;;;;;13.48;6.07;;;;;;;18.30;92.49;96210.25;5092474;28;20048;-75
2021/09/16 07:46:42;;;;;;;12.48;6.65;;;;;;;18.59;92.00;96200.41;5092745;28;20048;-75
2021/09/16 07:49:08;;;;;;;9.27;5.25;;;;;;;18.96;89.26;96192.25;5091923;28;20051;-74
2021/09/16 07:51:35;;;;;;;8.93;5.30;;;;;;;19.39;85.80;96187.97;5092539;28;20412;-75
2021/09/16 07:54:01;;;;;;;9.60;4.70;;;;;;;19.56;85.08;96198.41;5092238;28;20044;-73
2021/09/16 07:56:28;;;;;;;11.30;5.50;;;;;;;19.60;84.07;96208.72;5092352;28;20123;-75
2021/09/16 07:58:56;;;;;;;7.93;5.35;;;;;;;20.03;82.61;96205.16;5092452;28;20511;-74
2021/09/16 08:01:22;;;;;;;11.32;6.40;;;;;;;20.35;82.17;96199.06;5090881;28;20733;-74
2021/09/16 08:03:48;;;;;;;11.30;5.47;;;;;;;20.99;81.38;96202.22;5092530;28;20048;-77
2021/09/16 08:06:16;;;;;;;10.38;5.40;;;;;;;21.59;80.08;96198.84;5091728;28;20044;-74
2021/09/16 08:08:42;;;;;;;14.50;5.90;;;;;;;21.77;78.60;96193.34;5092306;28;20044;-74
2021/09/16 08:11:09;;;;;;;7.43;4.40;;;;;;;21.61;74.73;96201.22;5091704;28;20048;-74
2021/09/16 08:13:35;;;;;;;7.63;4.53;;;;;;;21.39;74.55;96213.44;5092438;28;20048;-75
2021/09/16 08:16:03;;;;;;;10.57;4.38;;;;;;;21.00;76.66;96203.81;5091723;28;20047;-74
2021/09/16 08:18:30;;;;;;;10.35;4.85;;;;;;;20.80;77.73;96197.78;5091992;28;20127;-75
2021/09/16 08:20:56;;;;;;;10.70;4.43;;;;;;;20.69;77.62;96202.47;5091720;28;20135;-76
2021/09/16 08:23:24;;;;;;;12.48;5.03;;;;;;;20.81;78.94;96198.56;5091824;28;20048;-75
2021/09/16 08:25:51;;;;;;;10.88;5.03;;;;;;;20.91;76.35;96192.28;5091327;28;20055;-75
2021/09/16 08:28:18;;;;;;;6.57;4.55;;;;;;;20.91;77.26;96197.81;5091545;28;20048;-74
2021/09/16 08:30:45;;;;;;;9.55;4.18;;;;;;;20.71;77.95;96202.06;5091724;28;20044;-75
2021/09/16 08:33:15;;;;;;;7.63;4.22;;;;;;;20.43;77.72;96202.69;5091496;28;20044;-75
2021/09/16 08:35:42;;;;;;;9.07;4.57;;;;;;;20.27;78.55;96202.97;5091572;28;20044;-75
2021/09/16 08:38:08;;;;;;;9.65;5.30;;;;;;;20.20;80.03;96197.38;5074698;28;20052;-75
2021/09/16 08:40:35;;;;;;;6.32;3.92;;;;;;;20.08;79.49;96202.03;5086027;28;20044;-74
2021/09/16 08:43:04;;;;;;;6.60;4.50;;;;;;;20.06;80.17;96198.88;5070688;28;20041;-75
2021/09/16 08:45:31;;;;;;;9.40;5.25;;;;;;;19.98;80.12;96197.22;5078913;28;20492;-75
2021/09/16 08:47:57;;;;;;;12.73;5.40;;;;;;;19.98;81.48;96199.19;5090232;28;20114;-75
2021/09/16 08:50:27;;;;;;;9.57;5.40;;;;;;;19.95;82.97;96203.53;5088306;28;20043;-75
2021/09/16 08:52:54;;;;;;;8.43;5.10;;;;;;;19.86;82.41;96203.06;5091525;28;20055;-75
2021/09/16 08:55:22;;;;;;;8.38;4.63;;;;;;;19.82;82.78;96204.97;5089461;28;20658;-74
2021/09/16 08:57:55;;;;;;;8.90;4.70;;;;;;;19.87;82.76;96206.59;5090772;28;20047;-75
2021/09/16 09:00:22;;;;;;;8.07;4.68;;;;;;;19.86;83.27;96205.03;5089604;28;20530;-75
2021/09/16 09:02:50;;;;;;;5.82;3.72;;;;;;;19.75;81.53;96210.47;5077672;28;20048;-75
2021/09/16 09:05:17;;;;;;;9.65;4.50;;;;;;;19.71;82.08;96204.09;5070017;28;20040;-75
2021/09/16 09:07:47;;;;;;;10.85;5.00;;;;;;;19.69;82.12;96203.69;5075613;28;20563;-74
2021/09/16 09:10:32;;;;;;;10.50;4.57;;;;;;;19.76;82.23;96196.25;5073954;28;20059;-74
2021/09/16 09:12:59;;;;;;;6.70;4.63;;;;;;;19.80;81.93;96208.13;5081063;28;20049;-74
2021/09/16 09:15:27;;;;;;;8.43;4.70;;;;;;;19.87;82.42;96201.06;5070934;28;20772;-74
2021/09/16 09:18:05;;;;;;;7.32;4.63;;;;;;;19.90;82.83;96195.59;5070802;28;20055;-74
2021/09/16 09:20:32;;;;;;;12.68;5.22;;;;;;;19.90;83.71;96195.59;5090687;28;20032;-74
2021/09/16 09:23:21;;;;;;;10.68;5.55;;;;;;;19.93;83.81;96188.50;5091006;28;20044;-75
2021/09/16 09:25:48;;;;;;;14.00;5.30;;;;;;;19.91;83.13;96191.66;5091137;28;20047;-75
2021/09/16 09:28:26;;;;;;;9.40;4.60;;;;;;;19.86;83.74;96189.22;5090697;28;20048;-75
2021/09/16 09:30:53;;;;;;;9.93;5.65;;;;;;;19.71;84.97;96184.75;5091249;28;20048;-75
2021/09/16 09:33:26;;;;;;;9.00;5.68;;;;;;;19.67;85.63;96181.97;5090501;28;20051;-75
2021/09/16 09:35:53;;;;;;;13.00;6.68;;;;;;;19.78;86.27;96176.53;5091108;28;20056;-75
2021/09/16 09:38:23;;;;;;;11.80;6.20;;;;;;;19.71;84.31;96182.78;5090719;28;20402;-75
2021/09/16 09:40:52;;;;;;;12.50;6.95;;;;;;;19.60;84.86;96186.63;5091065;28;20044;-75
2021/09/16 09:43:25;;;;;;;13.10;6.38;;;;;;;19.56;85.30;96176.31;5088987;28;20047;-75
2021/09/16 09:46:00;;;;;;;13.88;7.18;;;;;;;19.54;85.43;96178.66;5090824;28;20785;-75
2021/09/16 09:48:26;;;;;;;13.07;7.03;;;;;;;19.60;85.73;96175.59;5086732;28;20052;-75
2021/09/16 09:50:54;;;;;;;11.20;8.05;;;;;;;19.78;86.87;96180.09;5089237;28;20040;-75
2021/09/16 09:53:22;;;;;;;10.32;6.78;;;;;;;19.88;85.71;96175.81;5090586;28;20055;-75
2021/09/16 09:55:49;;;;;;;11.95;7.78;;;;;;;20.00;85.69;96178.31;5091117;28;20420;-75
2021/09/16 09:58:29;;;;;;;11.93;6.60;;;;;;;20.12;82.96;96184.69;5090499;28;20076;-76
2021/09/16 10:00:55;;;;;;;10.82;6.57;;;;;;;20.27;83.51;96178.09;5090941;28;20052;-74
2021/09/16 10:03:27;;;;;;;12.35;6.82;;;;;;;20.33;82.80;96179.31;5090364;28;20059;-74
2021/09/16 10:05:54;;;;;;;11.13;6.60;;;;;;;20.29;83.35;96184.00;5090895;28;20418;-75
2021/09/16 10:08:21;;;;;;;10.35;5.85;;;;;;;20.20;81.55;96180.78;5089690;28;20048;-75
2021/09/16 10:10:50;;;;;;;13.65;6.65;;;;;;;20.18;82.35;96169.34;5090549;28;20048;-75
2021/09/16 10:13:18;;;;;;;9.73;5.95;;;;;;;20.03;81.26;96166.47;5089904;28;20063;-75
2021/09/16 10:15:45;;;;;;;11.45;5.80;;;;;;;19.94;79.85;96156.91;5090660;28;20052;-75
2021/09/16 10:18:11;;;;;;;8.80;5.47;;;;;;;19.95;82.08;96169.56;5086419;28;20064;-74
2021/09/16 10:20:38;;;;;;;8.57;5.38;;;;;;;20.00;83.49;96161.72;5089823;28;20051;-74
2021/09/16 10:23:08;;;;;;;9.05;5.32;;;;;;;20.07;83.76;96161.75;5089952;28;20059;-74
2021/09/16 10:25:44;;;;;;;8.18;5.32;;;;;;;20.13;85.12;96159.41;5094416;28;20044;-74
2021/09/16 10:28:11;;;;;;;7.93;5.30;;;;;;;20.13;82.64;96158.63;5093627;28;20436;-74
2021/09/16 10:30:40;;;;;;;8.25;5.18;;;;;;;20.12;83.32;96160.59;5094208;28;20051;-75
2021/09/16 10:33:09;;;;;;;10.85;5.53;;;;;;;20.15;82.66;96164.56;5093732;28;20047;-74
2021/09/16 10:35:39;;;;;;;10.52;5.57;;;;;;;20.12;80.93;96157.06;5092924;28;20052;-74
2021/09/16 10:38:24;;;;;;;7.90;4.90;;;;;;;20.12;80.79;96168.91;5093798;28;20044;-74
2021/09/16 10:41:11;;;;;;;7.25;5.32;;;;;;;20.10;81.23;96164.91;5093644;28;20538;-74
2021/09/16 10:43:38;;;;;;;10.10;5.65;;;;;;;20.13;81.32;96164.94;5093958;28;20048;-74
2021/09/16 10:46:24;;;;;;;9.00;4.90;;;;;;;20.28;81.89;96169.41;5093197;28;20052;-74
2021/09/16 10:48:51;;;;;;;8.05;4.88;;;;;;;20.45;80.22;96170.69;5093856;28;20044;-76
2021/09/16 10:51:36;;;;;;;8.52;4.70;;;;;;;20.52;78.44;96164.44;5093249;28;20040;-75
2021/09/16 10:54:03;;;;;;;7.13;4.07;;;;;;;20.47;78.70;96168.38;5093444;28;20044;-73
2021/09/16 10:56:40;;;;;;;8.25;4.03;;;;;;;20.39;77.62;96169.47;5093473;28;20044;-75
2021/09/16 10:59:08;;;;;;;6.25;3.75;;;;;;;20.33;77.80;96174.56;5093155;28;20047;-74
2021/09/16 11:01:58;;;;;;;7.32;3.63;;;;;;;20.25;78.35;96166.59;5093443;28;20044;-75
2021/09/16 11:04:25;;;;;;;7.07;3.75;;;;;;;20.20;77.85;96166.97;5093020;28;20056;-74
2021/09/16 11:06:51;;;;;;;8.10;3.63;;;;;;;20.17;77.89;96159.47;5093411;28;20044;-74
2021/09/16 11:09:26;;;;;;;6.32;3.83;;;;;;;20.15;79.07;96159.03;5092587;28;20059;-75
2021/09/16 11:11:58;;;;;;;8.68;4.53;;;;;;;20.13;79.58;96162.19;5093275;28;20059;-75
2021/09/16 11:14:43;;;;;;;8.63;5.80;;;;;;;20.14;80.45;96158.25;5092989;28;20059;-75
2021/09/16 11:17:11;;;;;;;11.52;5.95;;;;;;;20.16;80.67;96153.13;5093075;28;20078;-76
2021/09/16 11:19:48;;;;;;;10.45;6.20;;;;;;;20.20;80.63;96159.50;5091661;28;20051;-75
2021/09/16 11:22:21;;;;;;;10.73;5.97;;;;;;;20.29;80.67;96159.91;5092856;28;20044;-74
2021/09/16 11:24:49;;;;;;;11.15;5.68;;;;;;;20.40;80.33;96153.66;5093183;28;20052;-74
2021/09/16 11:27:24;;;;;;;9.05;5.18;;;;;;;20.51;79.79;96151.78;5092707;28;20047;-74
2021/09/16 11:29:50;;;;;;;11.35;5.40;;;;;;;20.54;78.95;96146.28;5093067;28;20059;-74
2021/09/16 11:32:18;;;;;;;11.23;4.88;;;;;;;20.56;79.19;96141.13;5092717;28;20055;-74